sensor_id;sensor_type;location;lat;lon;timestamp;temperature;humidity
9668;DHT22;4872;48.316;10.650;2022-12-29T04:51:46;9.40;68.60
9668;DHT22;4872;48.316;10.650;2022-12-29T04:54:13;9.40;68.90
9668;DHT22;4872;48.316;10.650;2022-12-29T04:56:39;9.40;69.00
9668;DHT22;4872;48.316;10.650;2022-12-29T04:59:06;9.40;69.20
9668;DHT22;4872;48.316;10.650;2022-12-29T05:01:33;9.40;69.60
9668;DHT22;4872;48.316;10.650;2022-12-29T05:04:00;9.30;69.90
9668;DHT22;4872;48.316;10.650;2022-12-29T05:06:26;9.40;69.40
9668;DHT22;4872;48.316;10.650;2022-12-29T05:08:54;9.40;69.70
9668;DHT22;4872;48.316;10.650;2022-12-29T05:11:21;9.40;69.80
9668;DHT22;4872;48.316;10.650;2022-12-29T05:13:48;9.30;70.00
9668;DHT22;4872;48.316;10.650;2022-12-29T05:16:14;9.30;70.00
9668;DHT22;4872;48.316;10.650;2022-12-29T05:18:41;9.30;69.70
9668;DHT22;4872;48.316;10.650;2022-12-29T05:21:08;9.30;70.00
9668;DHT22;4872;48.316;10.650;2022-12-29T05:23:34;9.30;70.10
9668;DHT22;4872;48.316;10.650;2022-12-29T05:26:02;9.30;70.40
9668;DHT22;4872;48.316;10.650;2022-12-29T05:28:29;9.30;71.10
9668;DHT22;4872;48.316;10.650;2022-12-29T05:30:56;9.20;71.40
9668;DHT22;4872;48.316;10.650;2022-12-29T05:33:23;9.30;71.50
9668;DHT22;4872;48.316;10.650;2022-12-29T05:35:49;9.30;71.50
9668;DHT22;4872;48.316;10.650;2022-12-29T05:38:16;9.30;72.00
9668;DHT22;4872;48.316;10.650;2022-12-29T05:40:43;9.30;72.20
9668;DHT22;4872;48.316;10.650;2022-12-29T05:43:11;9.30;72.50
9668;DHT22;4872;48.316;10.650;2022-12-29T05:45:38;9.30;72.60
9668;DHT22;4872;48.316;10.650;2022-12-29T05:48:05;9.30;72.80
9668;DHT22;4872;48.316;10.650;2022-12-29T05:50:32;9.30;73.10
9668;DHT22;4872;48.316;10.650;2022-12-29T05:52:58;9.30;73.20
9668;DHT22;4872;48.316;10.650;2022-12-29T05:55:25;9.30;73.20
9668;DHT22;4872;48.316;10.650;2022-12-29T05:57:52;9.30;73.50
9668;DHT22;4872;48.316;10.650;2022-12-29T06:00:20;9.20;73.60
9668;DHT22;4872;48.316;10.650;2022-12-29T06:02:47;9.20;73.90
9668;DHT22;4872;48.316;10.650;2022-12-29T06:05:13;9.20;74.20
9668;DHT22;4872;48.316;10.650;2022-12-29T06:07:40;9.10;74.60
9668;DHT22;4872;48.316;10.650;2022-12-29T06:10:08;9.20;74.80
9668;DHT22;4872;48.316;10.650;2022-12-29T06:12:34;9.10;75.00
9668;DHT22;4872;48.316;10.650;2022-12-29T06:15:01;9.20;75.60
9668;DHT22;4872;48.316;10.650;2022-12-29T06:17:29;9.10;75.40
9668;DHT22;4872;48.316;10.650;2022-12-29T06:19:56;9.10;75.60
9668;DHT22;4872;48.316;10.650;2022-12-29T06:22:22;9.10;75.80
9668;DHT22;4872;48.316;10.650;2022-12-29T06:24:49;9.10;76.00
9668;DHT22;4872;48.316;10.650;2022-12-29T06:27:16;9.10;76.10
9668;DHT22;4872;48.316;10.650;2022-12-29T06:29:42;9.10;76.30
9668;DHT22;4872;48.316;10.650;2022-12-29T06:32:09;8.90;76.70
9668;DHT22;4872;48.316;10.650;2022-12-29T06:34:37;9.00;77.10
9668;DHT22;4872;48.316;10.650;2022-12-29T06:37:04;9.00;77.60
9668;DHT22;4872;48.316;10.650;2022-12-29T06:39:31;9.00;78.10
9668;DHT22;4872;48.316;10.650;2022-12-29T06:41:57;9.00;78.40
9668;DHT22;4872;48.316;10.650;2022-12-29T06:44:24;9.00;79.50
9668;DHT22;4872;48.316;10.650;2022-12-29T06:46:51;9.10;80.50
9668;DHT22;4872;48.316;10.650;2022-12-29T06:49:18;9.10;79.80
9668;DHT22;4872;48.316;10.650;2022-12-29T06:51:46;9.20;80.80
9668;DHT22;4872;48.316;10.650;2022-12-29T06:54:13;9.20;80.00
9668;DHT22;4872;48.316;10.650;2022-12-29T06:56:40;9.20;79.90
9668;DHT22;4872;48.316;10.650;2022-12-29T06:59:08;9.20;80.20
9668;DHT22;4872;48.316;10.650;2022-12-29T07:01:35;9.20;80.20
9668;DHT22;4872;48.316;10.650;2022-12-29T07:04:02;9.20;80.80
9668;DHT22;4872;48.316;10.650;2022-12-29T07:06:29;9.20;81.20
9668;DHT22;4872;48.316;10.650;2022-12-29T07:08:57;9.20;80.60
9668;DHT22;4872;48.316;10.650;2022-12-29T07:11:24;9.20;81.00
9668;DHT22;4872;48.316;10.650;2022-12-29T07:13:50;9.30;81.30
9668;DHT22;4872;48.316;10.650;2022-12-29T07:16:17;9.30;80.70
9668;DHT22;4872;48.316;10.650;2022-12-29T07:18:46;9.30;81.30
9668;DHT22;4872;48.316;10.650;2022-12-29T07:21:13;9.40;81.00
9668;DHT22;4872;48.316;10.650;2022-12-29T07:23:40;9.40;80.90
9668;DHT22;4872;48.316;10.650;2022-12-29T07:26:11;9.40;81.30
9668;DHT22;4872;48.316;10.650;2022-12-29T07:28:38;9.40;80.80
9668;DHT22;4872;48.316;10.650;2022-12-29T07:31:05;9.40;81.10
9668;DHT22;4872;48.316;10.650;2022-12-29T07:33:32;9.40;81.00
9668;DHT22;4872;48.316;10.650;2022-12-29T07:35:59;9.50;81.20
9668;DHT22;4872;48.316;10.650;2022-12-29T07:38:26;9.50;80.80
9668;DHT22;4872;48.316;10.650;2022-12-29T07:40:56;9.40;80.60
9668;DHT22;4872;48.316;10.650;2022-12-29T07:43:25;9.50;80.40
9668;DHT22;4872;48.316;10.650;2022-12-29T07:45:52;9.50;80.30
9668;DHT22;4872;48.316;10.650;2022-12-29T07:48:19;9.50;80.00
9668;DHT22;4872;48.316;10.650;2022-12-29T07:50:45;9.60;79.80
9668;DHT22;4872;48.316;10.650;2022-12-29T07:53:12;9.60;79.90
9668;DHT22;4872;48.316;10.650;2022-12-29T07:55:39;9.60;79.60
9668;DHT22;4872;48.316;10.650;2022-12-29T07:58:06;9.70;79.70
9668;DHT22;4872;48.316;10.650;2022-12-29T08:00:34;9.70;79.50
9668;DHT22;4872;48.316;10.650;2022-12-29T08:03:01;9.70;79.50
9668;DHT22;4872;48.316;10.650;2022-12-29T08:05:28;9.70;79.80
9668;DHT22;4872;48.316;10.650;2022-12-29T08:07:54;9.70;80.60
9668;DHT22;4872;48.316;10.650;2022-12-29T08:10:22;9.70;80.20
9668;DHT22;4872;48.316;10.650;2022-12-29T08:12:49;9.70;80.50
9668;DHT22;4872;48.316;10.650;2022-12-29T08:15:16;9.70;80.80
9668;DHT22;4872;48.316;10.650;2022-12-29T08:17:44;9.80;81.00
9668;DHT22;4872;48.316;10.650;2022-12-29T08:20:10;9.80;81.10
9668;DHT22;4872;48.316;10.650;2022-12-29T08:22:37;9.90;81.30
9668;DHT22;4872;48.316;10.650;2022-12-29T08:25:04;9.90;81.30
9668;DHT22;4872;48.316;10.650;2022-12-29T08:27:31;10.00;80.40
9668;DHT22;4872;48.316;10.650;2022-12-29T08:29:58;10.10;80.20
9668;DHT22;4872;48.316;10.650;2022-12-29T08:32:25;10.10;80.30
9668;DHT22;4872;48.316;10.650;2022-12-29T08:34:55;10.20;80.70
9668;DHT22;4872;48.316;10.650;2022-12-29T08:37:22;10.20;80.60
9668;DHT22;4872;48.316;10.650;2022-12-29T08:39:48;10.30;80.70
9668;DHT22;4872;48.316;10.650;2022-12-29T08:42:15;10.30;80.80
9668;DHT22;4872;48.316;10.650;2022-12-29T08:44:42;10.40;81.00
9668;DHT22;4872;48.316;10.650;2022-12-29T08:47:10;10.30;81.30
9668;DHT22;4872;48.316;10.650;2022-12-29T08:49:37;10.40;81.00
9668;DHT22;4872;48.316;10.650;2022-12-29T08:52:05;10.40;81.10
9668;DHT22;4872;48.316;10.650;2022-12-29T08:54:32;10.50;81.40
9668;DHT22;4872;48.316;10.650;2022-12-29T08:56:58;10.50;81.50
9668;DHT22;4872;48.316;10.650;2022-12-29T08:59:25;10.50;81.70
9668;DHT22;4872;48.316;10.650;2022-12-29T09:01:52;10.60;81.70
9668;DHT22;4872;48.316;10.650;2022-12-29T09:04:19;10.60;82.10
9668;DHT22;4872;48.316;10.650;2022-12-29T09:06:45;10.60;81.80
9668;DHT22;4872;48.316;10.650;2022-12-29T09:09:13;10.60;81.80
9668;DHT22;4872;48.316;10.650;2022-12-29T09:11:41;10.60;82.10
9668;DHT22;4872;48.316;10.650;2022-12-29T09:14:08;10.70;81.90
9668;DHT22;4872;48.316;10.650;2022-12-29T09:16:35;10.80;81.70
9668;DHT22;4872;48.316;10.650;2022-12-29T09:19:02;10.70;81.40
9668;DHT22;4872;48.316;10.650;2022-12-29T09:21:29;10.70;81.70
9668;DHT22;4872;48.316;10.650;2022-12-29T09:23:56;10.70;81.80
9668;DHT22;4872;48.316;10.650;2022-12-29T09:26:24;10.80;81.60
9668;DHT22;4872;48.316;10.650;2022-12-29T09:28:51;10.80;81.50
9668;DHT22;4872;48.316;10.650;2022-12-29T09:31:18;10.80;81.50
9668;DHT22;4872;48.316;10.650;2022-12-29T09:33:44;10.80;81.30
9668;DHT22;4872;48.316;10.650;2022-12-29T09:36:12;10.80;80.90
9668;DHT22;4872;48.316;10.650;2022-12-29T09:38:38;10.80;80.90
9668;DHT22;4872;48.316;10.650;2022-12-29T09:41:12;10.80;81.90
9668;DHT22;4872;48.316;10.650;2022-12-29T09:43:53;10.80;81.20
9668;DHT22;4872;48.316;10.650;2022-12-29T09:46:25;10.80;80.90
9668;DHT22;4872;48.316;10.650;2022-12-29T09:48:59;10.80;81.00
9668;DHT22;4872;48.316;10.650;2022-12-29T09:51:31;10.80;81.10
9668;DHT22;4872;48.316;10.650;2022-12-29T09:54:02;10.90;80.90
9668;DHT22;4872;48.316;10.650;2022-12-29T09:56:31;10.90;80.70
9668;DHT22;4872;48.316;10.650;2022-12-29T09:59:02;10.90;80.60
9668;DHT22;4872;48.316;10.650;2022-12-29T10:01:33;10.90;81.20
9668;DHT22;4872;48.316;10.650;2022-12-29T10:04:03;11.00;80.70
9668;DHT22;4872;48.316;10.650;2022-12-29T10:06:34;11.00;80.60
9668;DHT22;4872;48.316;10.650;2022-12-29T10:09:08;11.10;80.50
9668;DHT22;4872;48.316;10.650;2022-12-29T10:11:52;11.10;80.50
9668;DHT22;4872;48.316;10.650;2022-12-29T10:14:37;11.20;80.20
9668;DHT22;4872;48.316;10.650;2022-12-29T10:17:18;11.30;80.10
9668;DHT22;4872;48.316;10.650;2022-12-29T10:19:57;11.40;80.00
9668;DHT22;4872;48.316;10.650;2022-12-29T10:22:38;11.40;80.10
9668;DHT22;4872;48.316;10.650;2022-12-29T10:25:15;11.50;79.70
9668;DHT22;4872;48.316;10.650;2022-12-29T10:27:43;11.50;79.40
9668;DHT22;4872;48.316;10.650;2022-12-29T10:30:15;11.50;79.30
9668;DHT22;4872;48.316;10.650;2022-12-29T10:32:46;11.60;79.20
9668;DHT22;4872;48.316;10.650;2022-12-29T10:35:17;11.60;79.30
9668;DHT22;4872;48.316;10.650;2022-12-29T10:37:49;11.60;78.60
9668;DHT22;4872;48.316;10.650;2022-12-29T10:40:23;11.50;78.90
9668;DHT22;4872;48.316;10.650;2022-12-29T10:42:53;11.50;79.00
9668;DHT22;4872;48.316;10.650;2022-12-29T10:45:25;11.60;78.20
9668;DHT22;4872;48.316;10.650;2022-12-29T10:47:59;11.60;78.00
9668;DHT22;4872;48.316;10.650;2022-12-29T10:50:27;11.50;78.10
9668;DHT22;4872;48.316;10.650;2022-12-29T10:52:57;11.60;77.50
9668;DHT22;4872;48.316;10.650;2022-12-29T10:55:28;11.60;77.50
9668;DHT22;4872;48.316;10.650;2022-12-29T10:58:00;11.60;77.50
9668;DHT22;4872;48.316;10.650;2022-12-29T11:00:32;11.60;77.60
9668;DHT22;4872;48.316;10.650;2022-12-29T11:03:29;11.70;77.60
9668;DHT22;4872;48.316;10.650;2022-12-29T11:06:07;11.70;77.00
9668;DHT22;4872;48.316;10.650;2022-12-29T11:08:38;11.70;76.20
9668;DHT22;4872;48.316;10.650;2022-12-29T11:11:07;11.80;76.00
9668;DHT22;4872;48.316;10.650;2022-12-29T11:13:46;11.80;76.40
9668;DHT22;4872;48.316;10.650;2022-12-29T11:16:14;11.80;75.80
9668;DHT22;4872;48.316;10.650;2022-12-29T11:18:46;11.90;75.40
9668;DHT22;4872;48.316;10.650;2022-12-29T11:21:31;12.00;75.30
9668;DHT22;4872;48.316;10.650;2022-12-29T11:24:00;12.10;74.80
9668;DHT22;4872;48.316;10.650;2022-12-29T11:26:28;12.30;75.00
9668;DHT22;4872;48.316;10.650;2022-12-29T11:31:54;12.50;74.90
9668;DHT22;4872;48.316;10.650;2022-12-29T11:34:23;12.70;74.40
9668;DHT22;4872;48.316;10.650;2022-12-29T11:36:53;12.80;74.40
9668;DHT22;4872;48.316;10.650;2022-12-29T11:39:30;12.90;74.70
9668;DHT22;4872;48.316;10.650;2022-12-29T11:41:59;13.00;75.10
9668;DHT22;4872;48.316;10.650;2022-12-29T11:44:35;13.00;75.20
9668;DHT22;4872;48.316;10.650;2022-12-29T11:47:05;13.10;75.60
9668;DHT22;4872;48.316;10.650;2022-12-29T11:49:35;13.00;75.50
9668;DHT22;4872;48.316;10.650;2022-12-29T11:52:02;13.10;75.90
9668;DHT22;4872;48.316;10.650;2022-12-29T11:54:31;13.10;75.00
9668;DHT22;4872;48.316;10.650;2022-12-29T11:57:10;13.00;75.20
9668;DHT22;4872;48.316;10.650;2022-12-29T11:59:42;13.00;75.70
9668;DHT22;4872;48.316;10.650;2022-12-29T12:02:22;13.00;75.30
9668;DHT22;4872;48.316;10.650;2022-12-29T12:04:56;13.00;75.10
9668;DHT22;4872;48.316;10.650;2022-12-29T12:07:28;12.90;74.60
9668;DHT22;4872;48.316;10.650;2022-12-29T12:09:58;12.90;75.40
9668;DHT22;4872;48.316;10.650;2022-12-29T12:12:37;12.90;75.50
9668;DHT22;4872;48.316;10.650;2022-12-29T12:15:12;13.00;75.30
9668;DHT22;4872;48.316;10.650;2022-12-29T12:17:49;12.90;75.10
9668;DHT22;4872;48.316;10.650;2022-12-29T12:20:19;12.90;75.50
9668;DHT22;4872;48.316;10.650;2022-12-29T12:22:53;12.80;75.30
9668;DHT22;4872;48.316;10.650;2022-12-29T12:25:24;12.70;76.00
9668;DHT22;4872;48.316;10.650;2022-12-29T12:27:56;12.70;76.40
9668;DHT22;4872;48.316;10.650;2022-12-29T12:30:25;12.60;76.80
9668;DHT22;4872;48.316;10.650;2022-12-29T12:32:58;12.60;77.10
9668;DHT22;4872;48.316;10.650;2022-12-29T12:35:32;12.60;77.50
9668;DHT22;4872;48.316;10.650;2022-12-29T12:38:15;12.60;77.80
9668;DHT22;4872;48.316;10.650;2022-12-29T12:40:58;12.60;77.90
9668;DHT22;4872;48.316;10.650;2022-12-29T12:43:37;12.70;78.40
9668;DHT22;4872;48.316;10.650;2022-12-29T12:46:18;12.80;78.30
9668;DHT22;4872;48.316;10.650;2022-12-29T12:49:08;12.90;78.30
9668;DHT22;4872;48.316;10.650;2022-12-29T12:51:49;12.90;78.50
9668;DHT22;4872;48.316;10.650;2022-12-29T12:54:29;13.00;78.60
9668;DHT22;4872;48.316;10.650;2022-12-29T12:57:08;13.10;78.70
9668;DHT22;4872;48.316;10.650;2022-12-29T12:59:46;13.00;78.60
9668;DHT22;4872;48.316;10.650;2022-12-29T13:02:32;13.00;79.20
9668;DHT22;4872;48.316;10.650;2022-12-29T13:05:24;13.00;79.70
9668;DHT22;4872;48.316;10.650;2022-12-29T13:08:01;13.00;80.00
9668;DHT22;4872;48.316;10.650;2022-12-29T13:10:41;12.90;80.70
9668;DHT22;4872;48.316;10.650;2022-12-29T13:13:37;12.80;80.80
9668;DHT22;4872;48.316;10.650;2022-12-29T13:16:13;12.70;81.40
9668;DHT22;4872;48.316;10.650;2022-12-29T13:18:50;12.60;81.70
9668;DHT22;4872;48.316;10.650;2022-12-29T13:21:29;12.70;82.40
9668;DHT22;4872;48.316;10.650;2022-12-29T13:24:00;12.50;82.60
9668;DHT22;4872;48.316;10.650;2022-12-29T13:26:32;12.50;82.60
9668;DHT22;4872;48.316;10.650;2022-12-29T13:29:11;12.50;82.20
9668;DHT22;4872;48.316;10.650;2022-12-29T13:31:50;12.40;82.30
9668;DHT22;4872;48.316;10.650;2022-12-29T13:34:27;12.40;82.70
9668;DHT22;4872;48.316;10.650;2022-12-29T13:37:01;12.40;83.00
9668;DHT22;4872;48.316;10.650;2022-12-29T13:39:31;12.30;83.20
9668;DHT22;4872;48.316;10.650;2022-12-29T13:42:01;12.30;83.30
9668;DHT22;4872;48.316;10.650;2022-12-29T13:44:31;12.30;83.40
9668;DHT22;4872;48.316;10.650;2022-12-29T13:47:02;12.30;83.60
9668;DHT22;4872;48.316;10.650;2022-12-29T13:49:32;12.20;83.80
9668;DHT22;4872;48.316;10.650;2022-12-29T13:52:08;12.10;83.90
9668;DHT22;4872;48.316;10.650;2022-12-29T13:54:42;12.10;83.60
9668;DHT22;4872;48.316;10.650;2022-12-29T13:57:13;12.10;83.40
9668;DHT22;4872;48.316;10.650;2022-12-29T13:59:47;12.10;83.30
9668;DHT22;4872;48.316;10.650;2022-12-29T14:02:21;12.10;83.00
9668;DHT22;4872;48.316;10.650;2022-12-29T14:04:57;12.10;83.20
9668;DHT22;4872;48.316;10.650;2022-12-29T14:07:27;12.00;83.40
9668;DHT22;4872;48.316;10.650;2022-12-29T14:09:55;12.00;83.40
9668;DHT22;4872;48.316;10.650;2022-12-29T14:12:29;12.00;83.20
9668;DHT22;4872;48.316;10.650;2022-12-29T14:15:04;12.10;83.40
9668;DHT22;4872;48.316;10.650;2022-12-29T14:17:32;12.00;83.50
9668;DHT22;4872;48.316;10.650;2022-12-29T14:19:58;12.00;83.20
9668;DHT22;4872;48.316;10.650;2022-12-29T14:22:27;12.00;83.50
9668;DHT22;4872;48.316;10.650;2022-12-29T14:24:54;12.00;83.00
9668;DHT22;4872;48.316;10.650;2022-12-29T14:30:51;11.90;83.30
9668;DHT22;4872;48.316;10.650;2022-12-29T14:33:19;11.90;83.30
9668;DHT22;4872;48.316;10.650;2022-12-29T14:35:48;11.90;83.40
9668;DHT22;4872;48.316;10.650;2022-12-29T14:38:27;11.80;83.40
9668;DHT22;4872;48.316;10.650;2022-12-29T14:41:26;11.80;83.40
9668;DHT22;4872;48.316;10.650;2022-12-29T14:44:00;11.80;83.70
9668;DHT22;4872;48.316;10.650;2022-12-29T14:46:45;11.70;83.70
9668;DHT22;4872;48.316;10.650;2022-12-29T14:49:17;11.80;84.10
9668;DHT22;4872;48.316;10.650;2022-12-29T14:51:46;11.70;84.30
9668;DHT22;4872;48.316;10.650;2022-12-29T14:54:45;11.60;84.60
9668;DHT22;4872;48.316;10.650;2022-12-29T14:57:22;11.60;84.90
9668;DHT22;4872;48.316;10.650;2022-12-29T14:59:54;11.60;85.10
9668;DHT22;4872;48.316;10.650;2022-12-29T15:02:26;11.50;85.10
9668;DHT22;4872;48.316;10.650;2022-12-29T15:04:54;11.50;86.00
9668;DHT22;4872;48.316;10.650;2022-12-29T15:07:21;11.50;85.60
9668;DHT22;4872;48.316;10.650;2022-12-29T15:09:54;11.40;85.70
9668;DHT22;4872;48.316;10.650;2022-12-29T15:12:30;11.40;86.00
9668;DHT22;4872;48.316;10.650;2022-12-29T15:15:00;11.40;86.10
9668;DHT22;4872;48.316;10.650;2022-12-29T15:17:29;11.40;86.30
9668;DHT22;4872;48.316;10.650;2022-12-29T15:19:57;11.30;86.50
9668;DHT22;4872;48.316;10.650;2022-12-29T15:22:25;11.30;86.70
9668;DHT22;4872;48.316;10.650;2022-12-29T15:24:55;11.20;86.90
9668;DHT22;4872;48.316;10.650;2022-12-29T15:27:23;11.20;87.00
9668;DHT22;4872;48.316;10.650;2022-12-29T15:29:56;11.20;87.30
9668;DHT22;4872;48.316;10.650;2022-12-29T15:32:25;11.10;87.60
9668;DHT22;4872;48.316;10.650;2022-12-29T15:34:53;11.10;87.90
9668;DHT22;4872;48.316;10.650;2022-12-29T15:37:23;11.10;88.00
9668;DHT22;4872;48.316;10.650;2022-12-29T15:39:50;11.00;88.20
9668;DHT22;4872;48.316;10.650;2022-12-29T15:42:48;11.00;88.40
9668;DHT22;4872;48.316;10.650;2022-12-29T15:45:18;11.00;88.50
9668;DHT22;4872;48.316;10.650;2022-12-29T15:47:46;10.90;88.60
9668;DHT22;4872;48.316;10.650;2022-12-29T15:50:21;10.90;88.80
9668;DHT22;4872;48.316;10.650;2022-12-29T15:52:49;11.00;88.90
9668;DHT22;4872;48.316;10.650;2022-12-29T15:55:26;11.00;89.00
9668;DHT22;4872;48.316;10.650;2022-12-29T15:57:58;11.00;89.00
9668;DHT22;4872;48.316;10.650;2022-12-29T16:00:27;11.00;89.10
9668;DHT22;4872;48.316;10.650;2022-12-29T16:02:55;11.00;89.20
9668;DHT22;4872;48.316;10.650;2022-12-29T16:05:23;11.00;89.40
9668;DHT22;4872;48.316;10.650;2022-12-29T16:07:55;11.00;89.40
9668;DHT22;4872;48.316;10.650;2022-12-29T16:10:25;11.00;89.60
9668;DHT22;4872;48.316;10.650;2022-12-29T16:12:54;11.00;89.70
9668;DHT22;4872;48.316;10.650;2022-12-29T16:15:22;10.90;89.80
9668;DHT22;4872;48.316;10.650;2022-12-29T16:17:53;10.90;89.70
9668;DHT22;4872;48.316;10.650;2022-12-29T16:20:24;11.00;89.60
9668;DHT22;4872;48.316;10.650;2022-12-29T16:22:56;11.00;89.70
9668;DHT22;4872;48.316;10.650;2022-12-29T16:25:25;11.00;89.80
9668;DHT22;4872;48.316;10.650;2022-12-29T16:27:53;11.00;89.90
9668;DHT22;4872;48.316;10.650;2022-12-29T16:30:24;10.90;89.60
9668;DHT22;4872;48.316;10.650;2022-12-29T16:32:53;10.90;89.70
9668;DHT22;4872;48.316;10.650;2022-12-29T16:35:22;10.90;89.70
9668;DHT22;4872;48.316;10.650;2022-12-29T16:38:07;11.00;89.50
9668;DHT22;4872;48.316;10.650;2022-12-29T16:40:39;11.00;89.40
9668;DHT22;4872;48.316;10.650;2022-12-29T16:43:21;11.00;89.30
9668;DHT22;4872;48.316;10.650;2022-12-29T16:48:51;11.00;89.40
9668;DHT22;4872;48.316;10.650;2022-12-29T16:51:22;11.00;89.50
9668;DHT22;4872;48.316;10.650;2022-12-29T16:53:53;11.00;89.60
9668;DHT22;4872;48.316;10.650;2022-12-29T16:56:21;11.00;89.40
9668;DHT22;4872;48.316;10.650;2022-12-29T16:59:00;11.00;89.50
9668;DHT22;4872;48.316;10.650;2022-12-29T17:01:27;11.00;89.60
9668;DHT22;4872;48.316;10.650;2022-12-29T17:03:59;11.00;89.80
9668;DHT22;4872;48.316;10.650;2022-12-29T17:06:27;10.90;89.80
9668;DHT22;4872;48.316;10.650;2022-12-29T17:08:53;10.90;90.00
9668;DHT22;4872;48.316;10.650;2022-12-29T17:11:23;10.90;90.10
9668;DHT22;4872;48.316;10.650;2022-12-29T17:14:37;10.90;90.20
9668;DHT22;4872;48.316;10.650;2022-12-29T17:17:11;10.80;90.20
9668;DHT22;4872;48.316;10.650;2022-12-29T17:19:43;10.80;90.30
9668;DHT22;4872;48.316;10.650;2022-12-29T17:22:16;10.80;90.40
9668;DHT22;4872;48.316;10.650;2022-12-29T17:24:43;10.80;90.50
9668;DHT22;4872;48.316;10.650;2022-12-29T17:27:21;10.80;90.50
9668;DHT22;4872;48.316;10.650;2022-12-29T17:29:49;10.80;90.50
9668;DHT22;4872;48.316;10.650;2022-12-29T17:32:17;10.80;90.50
9668;DHT22;4872;48.316;10.650;2022-12-29T17:34:45;10.80;90.50
9668;DHT22;4872;48.316;10.650;2022-12-29T17:37:30;10.80;90.50
9668;DHT22;4872;48.316;10.650;2022-12-29T17:39:57;10.70;90.60
9668;DHT22;4872;48.316;10.650;2022-12-29T17:42:24;10.70;90.60
9668;DHT22;4872;48.316;10.650;2022-12-29T17:44:51;10.70;90.60
9668;DHT22;4872;48.316;10.650;2022-12-29T17:47:18;10.70;90.70
9668;DHT22;4872;48.316;10.650;2022-12-29T17:49:46;10.70;90.70
9668;DHT22;4872;48.316;10.650;2022-12-29T17:52:13;10.60;90.70
9668;DHT22;4872;48.316;10.650;2022-12-29T17:54:43;10.60;90.70
9668;DHT22;4872;48.316;10.650;2022-12-29T17:57:12;10.60;90.70
9668;DHT22;4872;48.316;10.650;2022-12-29T17:59:40;10.60;90.80
9668;DHT22;4872;48.316;10.650;2022-12-29T18:02:24;10.60;90.80
9668;DHT22;4872;48.316;10.650;2022-12-29T18:04:53;10.60;90.90
9668;DHT22;4872;48.316;10.650;2022-12-29T18:07:20;10.60;90.90
9668;DHT22;4872;48.316;10.650;2022-12-29T18:09:47;10.60;91.00
9668;DHT22;4872;48.316;10.650;2022-12-29T18:12:29;10.70;91.00
9668;DHT22;4872;48.316;10.650;2022-12-29T18:14:56;10.60;91.10
9668;DHT22;4872;48.316;10.650;2022-12-29T18:17:23;10.60;91.10
9668;DHT22;4872;48.316;10.650;2022-12-29T18:19:49;10.60;91.20
9668;DHT22;4872;48.316;10.650;2022-12-29T18:22:21;10.60;91.20
9668;DHT22;4872;48.316;10.650;2022-12-29T18:24:48;10.50;91.20
9668;DHT22;4872;48.316;10.650;2022-12-29T18:27:15;10.50;91.20
9668;DHT22;4872;48.316;10.650;2022-12-29T18:29:44;10.50;91.30
9668;DHT22;4872;48.316;10.650;2022-12-29T18:32:11;10.50;91.40
9668;DHT22;4872;48.316;10.650;2022-12-29T18:34:39;10.40;91.50
9668;DHT22;4872;48.316;10.650;2022-12-29T18:37:06;10.40;91.50
9668;DHT22;4872;48.316;10.650;2022-12-29T18:39:35;10.40;91.50
9668;DHT22;4872;48.316;10.650;2022-12-29T18:42:02;10.40;91.50
9668;DHT22;4872;48.316;10.650;2022-12-29T18:44:29;10.50;91.50
9668;DHT22;4872;48.316;10.650;2022-12-29T18:46:56;10.50;91.60
9668;DHT22;4872;48.316;10.650;2022-12-29T18:49:22;10.50;91.60
9668;DHT22;4872;48.316;10.650;2022-12-29T18:51:49;10.50;91.60
9668;DHT22;4872;48.316;10.650;2022-12-29T18:54:25;10.50;91.60
9668;DHT22;4872;48.316;10.650;2022-12-29T18:56:54;10.50;91.60
9668;DHT22;4872;48.316;10.650;2022-12-29T18:59:20;10.40;91.70
9668;DHT22;4872;48.316;10.650;2022-12-29T19:01:47;10.40;91.70
9668;DHT22;4872;48.316;10.650;2022-12-29T19:04:14;10.40;91.80
9668;DHT22;4872;48.316;10.650;2022-12-29T19:06:41;10.40;91.90
9668;DHT22;4872;48.316;10.650;2022-12-29T19:09:08;10.40;92.00
9668;DHT22;4872;48.316;10.650;2022-12-29T19:11:35;10.40;92.30
9668;DHT22;4872;48.316;10.650;2022-12-29T19:14:03;10.40;92.20
9668;DHT22;4872;48.316;10.650;2022-12-29T19:16:30;10.40;92.20
9668;DHT22;4872;48.316;10.650;2022-12-29T19:18:57;10.40;92.30
9668;DHT22;4872;48.316;10.650;2022-12-29T19:21:25;10.30;92.30
9668;DHT22;4872;48.316;10.650;2022-12-29T19:23:52;10.30;92.40
9668;DHT22;4872;48.316;10.650;2022-12-29T19:26:27;10.30;92.50
9668;DHT22;4872;48.316;10.650;2022-12-29T19:28:55;10.30;92.60
9668;DHT22;4872;48.316;10.650;2022-12-29T19:31:23;10.40;92.70
9668;DHT22;4872;48.316;10.650;2022-12-29T19:33:50;10.40;92.80
9668;DHT22;4872;48.316;10.650;2022-12-29T19:36:17;10.40;92.80
9668;DHT22;4872;48.316;10.650;2022-12-29T19:38:44;10.40;92.90
9668;DHT22;4872;48.316;10.650;2022-12-29T19:41:11;10.40;93.00
9668;DHT22;4872;48.316;10.650;2022-12-29T19:43:38;10.40;93.30
9668;DHT22;4872;48.316;10.650;2022-12-29T19:46:06;10.30;93.10
9668;DHT22;4872;48.316;10.650;2022-12-29T19:48:35;10.40;93.20
9668;DHT22;4872;48.316;10.650;2022-12-29T19:51:03;10.40;93.20
9668;DHT22;4872;48.316;10.650;2022-12-29T19:53:30;10.40;93.20
9668;DHT22;4872;48.316;10.650;2022-12-29T19:55:56;10.40;93.20
9668;DHT22;4872;48.316;10.650;2022-12-29T19:58:27;10.40;93.20
9668;DHT22;4872;48.316;10.650;2022-12-29T20:00:53;10.50;93.30
9668;DHT22;4872;48.316;10.650;2022-12-29T20:03:20;10.50;93.30
9668;DHT22;4872;48.316;10.650;2022-12-29T20:05:48;10.50;93.30
9668;DHT22;4872;48.316;10.650;2022-12-29T20:08:17;10.40;93.40
9668;DHT22;4872;48.316;10.650;2022-12-29T20:10:44;10.50;93.50
9668;DHT22;4872;48.316;10.650;2022-12-29T20:13:10;10.50;93.50
9668;DHT22;4872;48.316;10.650;2022-12-29T20:15:41;10.50;93.80
9668;DHT22;4872;48.316;10.650;2022-12-29T20:18:08;10.50;93.60
9668;DHT22;4872;48.316;10.650;2022-12-29T20:20:35;10.40;93.60
9668;DHT22;4872;48.316;10.650;2022-12-29T20:23:03;10.40;93.70
9668;DHT22;4872;48.316;10.650;2022-12-29T20:25:30;10.40;93.70
9668;DHT22;4872;48.316;10.650;2022-12-29T20:27:56;10.40;93.70
9668;DHT22;4872;48.316;10.650;2022-12-29T20:30:23;10.50;93.80
9668;DHT22;4872;48.316;10.650;2022-12-29T20:32:50;10.50;93.90
9668;DHT22;4872;48.316;10.650;2022-12-29T20:35:17;10.40;93.80
9668;DHT22;4872;48.316;10.650;2022-12-29T20:37:43;10.40;93.90
9668;DHT22;4872;48.316;10.650;2022-12-29T20:40:11;10.40;93.90
9668;DHT22;4872;48.316;10.650;2022-12-29T20:42:38;10.40;93.90
9668;DHT22;4872;48.316;10.650;2022-12-29T20:45:05;10.40;93.90
9668;DHT22;4872;48.316;10.650;2022-12-29T20:47:32;10.40;93.90
9668;DHT22;4872;48.316;10.650;2022-12-29T20:49:59;10.30;93.90
9668;DHT22;4872;48.316;10.650;2022-12-29T20:52:25;10.30;94.00
9668;DHT22;4872;48.316;10.650;2022-12-29T20:54:53;10.30;94.00
9668;DHT22;4872;48.316;10.650;2022-12-29T20:57:21;10.30;94.00
9668;DHT22;4872;48.316;10.650;2022-12-29T20:59:48;10.30;94.00
9668;DHT22;4872;48.316;10.650;2022-12-29T21:02:18;10.30;94.00
9668;DHT22;4872;48.316;10.650;2022-12-29T21:04:45;10.30;94.00
9668;DHT22;4872;48.316;10.650;2022-12-29T21:07:12;10.30;94.10
9668;DHT22;4872;48.316;10.650;2022-12-29T21:09:39;10.30;94.10